Time;durP1;ratioP1;P1;durP2;ratioP2;P2;SDS_P1;SDS_P2;PMS_P1;PMS_P2;Temp;Humidity;BMP_temperature;BMP_pressure;BME280_temperature;BME280_humidity;BME280_pressure;Samples;Min_cycle;Max_cycle;Signal;HPM_P1;HPM_P2
2022/09/16 00:01:30;;;;;;;21.95;7.47;;;;;;;13.56;91.63;95697.06;5069802;28;20522;-74
2022/09/16 00:03:57;;;;;;;20.50;7.30;;;;;;;13.56;91.72;95697.06;5070057;28;20506;-75
2022/09/16 00:06:26;;;;;;;25.95;7.50;;;;;;;13.59;92.08;95701.84;5069678;28;20048;-75
2022/09/16 00:08:57;;;;;;;20.65;7.53;;;;;;;13.59;92.41;95690.88;5070122;28;20045;-75
2022/09/16 00:11:24;;;;;;;23.05;7.80;;;;;;;13.62;92.67;95689.38;5069652;28;20044;-74
2022/09/16 00:13:51;;;;;;;21.95;8.15;;;;;;;13.62;92.60;95694.84;5070190;28;20060;-75
2022/09/16 00:16:20;;;;;;;22.85;8.10;;;;;;;13.63;93.03;95686.31;5069326;28;20115;-74
2022/09/16 00:18:47;;;;;;;19.50;7.30;;;;;;;13.69;92.87;95682.16;5069713;28;20421;-75
2022/09/16 00:21:14;;;;;;;26.30;8.27;;;;;;;13.68;92.69;95672.34;5066244;28;20048;-75
2022/09/16 00:23:41;;;;;;;28.73;9.43;;;;;;;13.73;92.63;95672.09;5069925;28;20040;-75
2022/09/16 00:26:09;;;;;;;25.65;7.40;;;;;;;13.76;92.98;95674.09;5069177;28;20139;-74
2022/09/16 00:28:35;;;;;;;24.73;8.73;;;;;;;13.70;93.54;95659.09;5069567;28;20048;-75
2022/09/16 00:31:02;;;;;;;30.35;8.40;;;;;;;13.76;93.56;95657.69;5069082;28;20507;-76
2022/09/16 00:33:28;;;;;;;23.95;8.07;;;;;;;13.81;93.73;95673.84;5069380;28;20415;-75
2022/09/16 00:36:08;;;;;;;25.05;8.60;;;;;;;13.83;93.79;95657.88;5069298;28;20049;-76
2022/09/16 00:38:34;;;;;;;24.08;8.27;;;;;;;13.89;93.89;95663.06;5072405;28;20502;-76
2022/09/16 00:41:01;;;;;;;30.98;8.35;;;;;;;13.93;94.08;95666.66;5073057;28;20080;-76
2022/09/16 00:43:29;;;;;;;27.10;8.40;;;;;;;13.99;94.03;95665.22;5072772;28;20052;-76
2022/09/16 00:45:59;;;;;;;24.75;7.90;;;;;;;13.94;93.51;95668.25;5072841;28;20041;-75
2022/09/16 00:48:30;;;;;;;18.08;6.90;;;;;;;13.96;93.43;95665.97;5072520;28;20044;-75
2022/09/16 00:50:59;;;;;;;26.75;8.07;;;;;;;14.00;93.47;95667.63;5072588;28;20392;-75
2022/09/16 00:53:29;;;;;;;24.27;8.35;;;;;;;13.98;93.55;95663.66;5052450;28;20120;-76
2022/09/16 00:55:59;;;;;;;21.70;7.78;;;;;;;14.06;93.14;95670.88;5058286;28;20044;-74
2022/09/16 00:58:34;;;;;;;25.40;7.95;;;;;;;14.03;92.85;95664.16;5072193;28;20040;-74
2022/09/16 01:01:03;;;;;;;24.02;8.05;;;;;;;14.08;92.88;95668.56;5072505;28;20048;-76
2022/09/16 01:03:31;;;;;;;29.23;8.82;;;;;;;14.06;93.09;95671.69;5072462;28;20039;-76
2022/09/16 01:05:57;;;;;;;23.27;7.53;;;;;;;14.12;93.31;95669.44;5072614;28;20045;-76
2022/09/16 01:08:24;;;;;;;21.40;8.27;;;;;;;14.04;92.63;95673.16;5072430;28;20072;-77
2022/09/16 01:10:51;;;;;;;26.50;8.48;;;;;;;13.92;91.83;95673.28;5072633;28;20063;-77
2022/09/16 01:13:17;;;;;;;24.25;8.18;;;;;;;13.91;91.92;95672.50;5072149;28;20052;-76
2022/09/16 01:15:54;;;;;;;23.88;7.85;;;;;;;13.76;92.97;95671.38;5072578;28;20044;-76
2022/09/16 01:18:30;;;;;;;27.15;8.68;;;;;;;13.81;92.49;95664.81;5072152;28;20068;-76
2022/09/16 01:21:28;;;;;;;29.42;8.65;;;;;;;13.74;92.95;95654.53;5072189;28;20274;-76
2022/09/16 01:24:34;;;;;;;22.30;8.13;;;;;;;13.67;93.22;95659.00;5052140;28;20127;-77
2022/09/16 01:27:20;;;;;;;23.83;7.90;;;;;;;13.75;93.15;95661.56;5004752;28;20058;-76
2022/09/16 01:30:17;;;;;;;24.77;7.82;;;;;;;13.79;93.23;95659.72;5069800;28;20048;-77
2022/09/16 01:33:03;;;;;;;25.70;8.32;;;;;;;13.77;93.14;95659.25;5071958;28;20043;-78
2022/09/16 01:35:43;;;;;;;29.92;9.63;;;;;;;13.81;92.98;95657.41;5071601;28;20148;-76
2022/09/16 01:38:23;;;;;;;25.88;8.55;;;;;;;13.84;93.04;95664.91;5071779;28;20470;-75
2022/09/16 01:40:57;;;;;;;19.23;7.70;;;;;;;13.91;93.01;95658.81;5072489;28;20666;-75
2022/09/16 01:43:37;;;;;;;24.55;7.30;;;;;;;14.02;93.27;95653.56;5072030;28;20049;-75
2022/09/16 01:46:12;;;;;;;21.33;7.13;;;;;;;14.07;93.54;95651.34;5071605;28;20051;-75
2022/09/16 01:48:44;;;;;;;20.10;7.43;;;;;;;14.13;93.65;95651.88;5071266;28;20063;-75
2022/09/16 01:51:19;;;;;;;30.10;8.43;;;;;;;14.10;93.71;95650.66;5071537;28;20051;-75
2022/09/16 01:53:51;;;;;;;19.58;7.57;;;;;;;14.15;93.19;95652.31;5072197;28;20046;-74
2022/09/16 01:56:22;;;;;;;30.05;7.45;;;;;;;14.14;93.18;95652.66;5070879;28;20036;-75
2022/09/16 01:58:55;;;;;;;15.40;6.63;;;;;;;14.16;93.15;95651.16;5072285;28;20119;-74
2022/09/16 02:01:25;;;;;;;28.40;8.87;;;;;;;14.15;93.46;95643.28;5071452;28;20055;-75
2022/09/16 02:03:58;;;;;;;19.60;6.85;;;;;;;14.15;93.09;95646.03;5071656;28;20322;-74
2022/09/16 02:06:28;;;;;;;20.60;7.90;;;;;;;14.13;92.92;95646.38;5071271;28;20649;-74
2022/09/16 02:08:58;;;;;;;22.02;7.30;;;;;;;14.14;93.11;95647.97;5071334;28;20051;-75
2022/09/16 02:11:25;;;;;;;20.40;7.07;;;;;;;14.14;93.21;95645.22;5071084;28;20044;-75
2022/09/16 02:13:56;;;;;;;24.45;8.35;;;;;;;14.13;92.38;95651.88;5071419;28;20052;-75
2022/09/16 02:16:35;;;;;;;19.15;7.18;;;;;;;14.14;92.51;95655.41;5071067;28;20048;-74
2022/09/16 02:19:09;;;;;;;18.17;6.60;;;;;;;14.12;92.82;95647.53;5071390;28;20403;-75
2022/09/16 02:21:39;;;;;;;24.27;7.90;;;;;;;14.09;92.80;95640.03;5070936;28;20041;-75
2022/09/16 02:24:10;;;;;;;20.50;7.85;;;;;;;14.10;92.35;95658.06;5070460;28;20044;-74
2022/09/16 02:26:42;;;;;;;25.90;7.90;;;;;;;14.12;92.42;95653.03;5070959;28;20040;-77
2022/09/16 02:29:13;;;;;;;22.83;7.97;;;;;;;14.08;92.64;95658.41;5070632;28;20045;-74
2022/09/16 02:31:43;;;;;;;22.48;7.82;;;;;;;14.00;92.27;95655.88;5070873;28;20628;-74
2022/09/16 02:34:14;;;;;;;23.95;8.27;;;;;;;13.72;93.51;95656.00;5070537;28;20049;-75
2022/09/16 02:36:45;;;;;;;26.05;8.80;;;;;;;13.77;93.58;95651.06;5070770;28;20041;-75
2022/09/16 02:39:18;;;;;;;26.13;8.93;;;;;;;13.77;93.62;95653.78;5070258;28;20044;-75
2022/09/16 02:41:45;;;;;;;23.13;7.80;;;;;;;13.84;93.41;95642.25;5070955;28;20063;-75
2022/09/16 02:44:12;;;;;;;25.30;7.75;;;;;;;13.91;93.36;95658.81;5070441;28;20052;-75
2022/09/16 02:46:46;;;;;;;21.10;7.57;;;;;;;13.97;93.81;95651.91;5070677;28;20040;-77
2022/09/16 02:49:23;;;;;;;31.90;9.13;;;;;;;13.77;94.07;95651.06;5070320;28;20051;-75
2022/09/16 02:51:58;;;;;;;21.65;7.18;;;;;;;13.75;94.29;95647.88;5070197;28;20130;-75
2022/09/16 02:54:35;;;;;;;20.63;8.20;;;;;;;13.68;93.92;95647.72;5069881;28;20606;-75
2022/09/16 02:57:03;;;;;;;31.98;9.07;;;;;;;13.55;95.44;95648.97;5069423;28;20053;-73
2022/09/16 02:59:29;;;;;;;25.27;8.63;;;;;;;13.37;96.70;95645.81;5069828;28;20487;-74
2022/09/16 03:01:56;;;;;;;23.83;8.45;;;;;;;13.44;96.40;95651.44;5069947;28;20045;-74
2022/09/16 03:04:24;;;;;;;28.58;8.63;;;;;;;13.30;97.28;95646.41;5069547;28;20044;-75
2022/09/16 03:06:50;;;;;;;22.85;8.00;;;;;;;13.41;96.80;95643.13;5070123;28;20059;-75
2022/09/16 03:09:22;;;;;;;32.42;8.80;;;;;;;13.54;95.90;95639.19;5069461;28;20049;-74
2022/09/16 03:12:02;;;;;;;21.48;7.68;;;;;;;13.58;95.59;95637.34;5070112;28;20040;-74
2022/09/16 03:14:46;;;;;;;28.63;8.98;;;;;;;13.47;95.67;95631.59;5069630;28;20040;-74
2022/09/16 03:17:27;;;;;;;32.97;8.98;;;;;;;13.55;95.49;95630.63;5069320;28;20048;-75
2022/09/16 03:20:09;;;;;;;25.85;7.60;;;;;;;13.70;95.02;95628.22;5069850;28;20051;-75
2022/09/16 03:22:47;;;;;;;17.73;7.50;;;;;;;13.63;94.36;95626.13;5069745;28;20127;-76
2022/09/16 03:25:24;;;;;;;24.27;7.75;;;;;;;13.63;93.96;95626.13;5069610;28;20525;-74
2022/09/16 03:27:57;;;;;;;29.20;8.63;;;;;;;13.64;93.69;95621.44;5050179;28;20048;-75
2022/09/16 03:30:24;;;;;;;24.33;7.95;;;;;;;13.50;93.51;95621.88;5049709;28;20507;-75
2022/09/16 03:32:54;;;;;;;29.67;8.30;;;;;;;13.61;93.41;95622.94;5050170;28;20044;-74
2022/09/16 03:35:29;;;;;;;22.58;7.22;;;;;;;13.66;93.59;95622.66;5049621;28;21550;-74
2022/09/16 03:37:59;;;;;;;29.40;8.90;;;;;;;13.61;93.81;95616.66;5049734;28;20880;-75
2022/09/16 03:40:28;;;;;;;27.20;7.78;;;;;;;13.64;93.61;95616.75;5049717;28;20381;-76
2022/09/16 03:42:56;;;;;;;23.83;7.68;;;;;;;13.60;92.65;95613.13;5050051;28;20455;-76
2022/09/16 03:45:23;;;;;;;22.60;7.80;;;;;;;13.65;92.77;95612.06;5049574;28;20095;-76
2022/09/16 03:47:50;;;;;;;20.67;7.68;;;;;;;13.45;93.03;95608.47;5050000;28;20044;-76
2022/09/16 03:50:19;;;;;;;21.60;7.65;;;;;;;13.50;93.19;95610.94;5049804;28;20052;-76
2022/09/16 03:52:46;;;;;;;19.70;7.65;;;;;;;13.58;93.23;95607.25;5067150;28;20052;-76
2022/09/16 03:55:14;;;;;;;22.63;7.47;;;;;;;13.54;93.26;95606.34;5069527;28;20044;-76
2022/09/16 03:57:41;;;;;;;24.38;7.57;;;;;;;13.59;92.92;95603.34;5049825;28;20071;-76
2022/09/16 04:00:09;;;;;;;20.17;6.55;;;;;;;13.68;92.59;95601.22;5049498;28;20049;-76
2022/09/16 04:02:35;;;;;;;23.90;7.10;;;;;;;13.76;91.96;95602.16;5049960;28;20041;-77
2022/09/16 04:05:03;;;;;;;26.05;8.45;;;;;;;13.63;92.15;95609.72;5049634;28;20049;-76
2022/09/16 04:07:32;;;;;;;24.52;8.00;;;;;;;13.62;92.58;95607.31;5049774;28;20041;-76
2022/09/16 04:10:00;;;;;;;22.55;7.45;;;;;;;13.71;92.00;95608.69;5049907;28;20123;-77
2022/09/16 04:12:26;;;;;;;23.27;6.93;;;;;;;13.77;91.89;95610.00;5050919;28;20040;-76
2022/09/16 04:14:53;;;;;;;21.90;7.47;;;;;;;13.86;91.79;95612.56;5053732;28;20048;-77
2022/09/16 04:17:19;;;;;;;21.67;7.57;;;;;;;13.81;91.34;95610.88;5053140;28;20048;-75
2022/09/16 04:19:46;;;;;;;14.82;6.45;;;;;;;13.81;91.02;95610.09;5053658;28;20037;-75
2022/09/16 04:22:12;;;;;;;27.38;8.32;;;;;;;13.74;91.12;95616.22;5065684;28;20419;-76
2022/09/16 04:24:39;;;;;;;23.42;6.95;;;;;;;13.73;91.37;95622.03;5073470;28;20506;-74
2022/09/16 04:27:07;;;;;;;22.17;7.53;;;;;;;13.77;91.20;95615.47;5073058;28;20392;-73
2022/09/16 04:29:33;;;;;;;21.02;6.93;;;;;;;13.86;90.99;95614.50;5073419;28;20055;-75
2022/09/16 04:31:59;;;;;;;18.83;6.80;;;;;;;13.86;91.19;95609.03;5073442;28;20044;-74
2022/09/16 04:34:26;;;;;;;19.05;7.53;;;;;;;13.76;91.22;95619.38;5072769;28;20041;-75
2022/09/16 04:36:53;;;;;;;20.23;7.95;;;;;;;13.72;91.31;95613.03;5073182;28;20110;-75
2022/09/16 04:39:19;;;;;;;31.00;8.23;;;;;;;13.80;91.18;95611.25;5072462;28;20044;-74
2022/09/16 04:41:46;;;;;;;25.50;8.07;;;;;;;13.69;91.41;95607.50;5073149;28;20555;-75
2022/09/16 04:44:14;;;;;;;28.90;9.27;;;;;;;13.63;92.20;95615.19;5072682;28;20049;-75
2022/09/16 04:46:40;;;;;;;26.42;8.63;;;;;;;13.62;92.52;95608.09;5072982;28;20036;-75
2022/09/16 04:49:07;;;;;;;29.67;9.23;;;;;;;13.48;92.78;95607.78;5072460;28;20056;-74
2022/09/16 04:51:33;;;;;;;24.92;9.20;;;;;;;13.49;93.54;95620.31;5072953;28;20415;-74
2022/09/16 04:54:00;;;;;;;27.02;9.30;;;;;;;13.30;94.80;95630.00;5072893;28;20412;-76
2022/09/16 04:56:30;;;;;;;28.30;10.23;;;;;;;13.19;95.13;95641.78;5072208;28;20064;-76
2022/09/16 04:58:59;;;;;;;24.65;9.80;;;;;;;13.15;95.47;95638.97;5072790;28;20127;-75
2022/09/16 05:01:30;;;;;;;23.83;9.55;;;;;;;13.13;96.16;95644.00;5072012;28;20036;-76
2022/09/16 05:03:59;;;;;;;29.38;10.55;;;;;;;13.19;96.68;95645.31;5072539;28;20047;-76
2022/09/16 05:06:27;;;;;;;30.65;10.98;;;;;;;13.26;96.18;95644.75;5072082;28;20095;-76
2022/09/16 05:08:55;;;;;;;22.40;10.00;;;;;;;13.08;96.43;95646.97;5072800;28;20392;-76
2022/09/16 05:11:23;;;;;;;35.85;10.85;;;;;;;13.09;96.45;95640.38;5071959;28;20053;-76
2022/09/16 05:13:49;;;;;;;29.25;11.27;;;;;;;12.99;97.01;95647.13;5072649;28;20399;-76
2022/09/16 05:16:18;;;;;;;28.83;11.35;;;;;;;12.95;97.62;95650.94;5072002;28;20047;-77
2022/09/16 05:18:48;;;;;;;23.52;11.10;;;;;;;12.82;97.37;95650.19;5072448;28;20040;-74
2022/09/16 05:21:17;;;;;;;29.90;11.35;;;;;;;12.86;96.98;95659.28;5071624;28;20056;-75
2022/09/16 05:23:44;;;;;;;30.98;11.88;;;;;;;12.82;96.82;95657.59;5072375;28;20119;-74
2022/09/16 05:26:13;;;;;;;35.92;12.45;;;;;;;12.95;96.59;95656.41;5072116;28;20048;-74
2022/09/16 05:28:40;;;;;;;31.42;12.20;;;;;;;12.95;96.13;95657.19;5072396;28;20043;-75
2022/09/16 05:31:11;;;;;;;35.90;12.50;;;;;;;12.86;96.26;95653.03;5072015;28;20115;-75
2022/09/16 05:33:37;;;;;;;36.22;12.40;;;;;;;12.85;96.26;95651.47;5072312;28;20040;-75
2022/09/16 05:36:07;;;;;;;37.10;12.70;;;;;;;12.92;96.18;95659.84;5071794;28;20044;-76
2022/09/16 05:38:33;;;;;;;30.40;11.70;;;;;;;12.99;95.02;95658.06;5071874;28;20043;-75
2022/09/16 05:41:00;;;;;;;25.92;10.48;;;;;;;13.16;94.25;95656.97;5071934;28;20044;-75
2022/09/16 05:43:27;;;;;;;29.63;11.07;;;;;;;13.28;93.61;95658.84;5071679;28;20044;-75
2022/09/16 05:45:55;;;;;;;25.70;10.55;;;;;;;13.31;92.29;95649.94;5071958;28;20048;-75
2022/09/16 05:48:22;;;;;;;25.92;10.60;;;;;;;13.32;92.04;95649.59;5071495;28;20066;-76
2022/09/16 05:50:53;;;;;;;30.13;11.82;;;;;;;13.39;91.68;95637.25;5071646;28;20831;-75
2022/09/16 05:53:21;;;;;;;33.47;10.90;;;;;;;13.44;91.06;95651.44;5071184;28;20056;-75
2022/09/16 05:55:57;;;;;;;33.05;11.30;;;;;;;13.40;91.21;95655.22;5071618;28;20412;-74
2022/09/16 05:58:25;;;;;;;28.63;11.23;;;;;;;13.34;91.70;95651.19;5071148;28;20037;-75
2022/09/16 06:00:52;;;;;;;34.60;12.10;;;;;;;13.17;92.08;95646.81;5071602;28;20380;-75
2022/09/16 06:03:18;;;;;;;33.55;10.98;;;;;;;13.31;92.04;95642.56;5071102;28;20052;-75
2022/09/16 06:05:45;;;;;;;37.63;12.48;;;;;;;13.39;91.94;95648.19;5071488;28;20041;-75
2022/09/16 06:08:11;;;;;;;41.83;12.38;;;;;;;13.38;92.18;95646.59;5071019;28;20048;-74
2022/09/16 06:10:40;;;;;;;29.63;11.48;;;;;;;13.45;92.25;95642.09;5071309;28;20041;-75
2022/09/16 06:13:06;;;;;;;32.45;11.43;;;;;;;13.50;92.12;95650.03;5071022;28;20419;-73
2022/09/16 06:15:34;;;;;;;28.20;11.38;;;;;;;13.54;91.68;95653.66;5071297;28;20522;-76
2022/09/16 06:18:01;;;;;;;44.17;12.55;;;;;;;13.59;91.45;95641.66;5071088;28;20043;-77
2022/09/16 06:20:27;;;;;;;30.25;10.27;;;;;;;13.61;90.83;95642.06;5070996;28;20040;-75
2022/09/16 06:22:54;;;;;;;29.50;10.75;;;;;;;13.71;90.52;95643.47;5071228;28;20048;-74
2022/09/16 06:25:20;;;;;;;38.80;10.90;;;;;;;13.74;90.36;95643.56;5070587;28;20048;-75
2022/09/16 06:27:48;;;;;;;37.58;11.18;;;;;;;13.71;91.14;95641.53;5070715;28;20495;-76
2022/09/16 06:30:14;;;;;;;30.15;10.80;;;;;;;13.74;91.22;95638.09;5070753;28;20499;-74
2022/09/16 06:32:41;;;;;;;29.67;11.00;;;;;;;13.71;91.38;95633.31;5070981;28;20044;-75
2022/09/16 06:35:08;;;;;;;29.80;10.30;;;;;;;13.68;91.22;95633.25;5069802;28;20041;-76
2022/09/16 06:37:35;;;;;;;22.92;10.23;;;;;;;13.66;91.06;95639.06;5070779;28;20060;-75
2022/09/16 06:40:02;;;;;;;38.42;11.13;;;;;;;13.77;91.06;95636.59;5070655;28;20049;-73
2022/09/16 06:42:28;;;;;;;27.48;10.32;;;;;;;13.88;91.65;95631.34;5071047;28;20044;-75
2022/09/16 06:44:57;;;;;;;29.10;10.40;;;;;;;13.93;90.08;95633.81;5070558;28;20133;-75
2022/09/16 06:47:23;;;;;;;38.58;11.70;;;;;;;13.82;90.17;95636.31;5070255;28;20124;-75
2022/09/16 06:49:50;;;;;;;35.13;11.80;;;;;;;13.91;88.90;95638.88;5070777;28;20099;-75
2022/09/16 06:52:16;;;;;;;29.25;10.63;;;;;;;13.93;88.76;95631.06;5069902;28;20047;-75
2022/09/16 06:54:42;;;;;;;36.72;11.07;;;;;;;13.79;89.23;95640.56;5070845;28;20041;-75
2022/09/16 06:57:09;;;;;;;27.77;10.85;;;;;;;13.89;88.73;95639.22;5069895;28;20067;-75
2022/09/16 06:59:35;;;;;;;27.40;9.98;;;;;;;13.96;88.61;95633.13;5070645;28;20400;-75
2022/09/16 07:02:03;;;;;;;25.55;9.85;;;;;;;13.97;88.08;95640.16;5070068;28;20725;-75
2022/09/16 07:04:30;;;;;;;30.90;10.38;;;;;;;13.99;88.09;95630.47;5070460;28;20045;-75
2022/09/16 07:06:57;;;;;;;24.45;9.55;;;;;;;13.97;87.87;95631.97;5070491;28;20044;-74
2022/09/16 07:09:24;;;;;;;26.20;10.13;;;;;;;13.91;87.05;95630.66;5069966;28;20482;-75
2022/09/16 07:11:50;;;;;;;30.92;9.48;;;;;;;13.94;87.22;95635.41;5070435;28;20040;-75
2022/09/16 07:14:17;;;;;;;25.33;9.77;;;;;;;13.99;87.77;95632.38;5069741;28;20052;-74
2022/09/16 07:16:43;;;;;;;28.48;9.98;;;;;;;13.95;87.82;95631.53;5070253;28;20043;-75
2022/09/16 07:19:11;;;;;;;33.88;11.13;;;;;;;13.91;87.48;95636.13;5069743;28;20049;-75
2022/09/16 07:21:37;;;;;;;32.00;9.95;;;;;;;13.95;87.25;95634.28;5069995;28;20418;-75
2022/09/16 07:24:04;;;;;;;20.98;10.02;;;;;;;13.95;87.61;95634.28;5069904;28;20047;-75
2022/09/16 07:26:33;;;;;;;31.13;10.40;;;;;;;13.95;87.94;95639.75;5070274;28;20071;-75
2022/09/16 07:29:01;;;;;;;30.88;10.90;;;;;;;13.81;87.94;95632.78;5070423;28;20496;-75
2022/09/16 07:31:31;;;;;;;27.85;11.38;;;;;;;13.74;89.12;95638.09;5070058;28;20048;-74
2022/09/16 07:34:00;;;;;;;26.83;10.25;;;;;;;13.86;88.52;95633.66;5070179;28;20526;-74
2022/09/16 07:36:30;;;;;;;36.03;11.88;;;;;;;13.89;87.83;95635.69;5069859;28;20044;-74
2022/09/16 07:38:57;;;;;;;34.97;11.38;;;;;;;13.96;87.54;95628.44;5069922;28;20056;-74
2022/09/16 07:41:26;;;;;;;35.83;11.07;;;;;;;13.95;87.51;95632.31;5069624;28;20411;-76
2022/09/16 07:43:54;;;;;;;31.55;11.68;;;;;;;13.90;87.65;95631.81;5070262;28;20110;-75
2022/09/16 07:46:21;;;;;;;37.28;11.65;;;;;;;13.81;86.57;95632.78;5069684;28;20044;-74
2022/09/16 07:48:49;;;;;;;29.30;11.23;;;;;;;13.55;87.51;95636.09;5074065;28;20041;-75
2022/09/16 07:51:18;;;;;;;32.00;11.25;;;;;;;13.58;87.34;95640.06;5073587;28;20411;-74
2022/09/16 07:53:46;;;;;;;30.88;11.18;;;;;;;13.75;88.07;95636.94;5074073;28;20041;-75
2022/09/16 07:56:15;;;;;;;38.45;11.60;;;;;;;13.87;88.61;95640.72;5073342;28;20522;-76
2022/09/16 07:58:43;;;;;;;33.65;12.10;;;;;;;13.90;87.50;95634.53;5074046;28;20051;-75
2022/09/16 08:01:10;;;;;;;33.33;11.10;;;;;;;13.76;87.20;95635.78;5073480;28;20045;-75
2022/09/16 08:03:38;;;;;;;36.97;12.00;;;;;;;13.92;87.03;95633.03;5074035;28;20047;-75
2022/09/16 08:06:07;;;;;;;31.83;11.80;;;;;;;13.97;86.24;95635.47;5073527;28;20048;-74
2022/09/16 08:08:34;;;;;;;34.25;10.50;;;;;;;14.01;87.27;95635.56;5073919;28;20045;-75
2022/09/16 08:11:02;;;;;;;38.40;12.07;;;;;;;14.10;87.04;95633.44;5073882;28;20091;-75
2022/09/16 08:13:31;;;;;;;24.25;10.52;;;;;;;13.97;85.82;95630.00;5073370;28;20039;-75
2022/09/16 08:16:01;;;;;;;22.83;9.65;;;;;;;14.03;85.77;95633.25;5073726;28;20045;-76
2022/09/16 08:18:27;;;;;;;33.03;10.77;;;;;;;14.10;85.67;95630.69;5073264;28;20059;-76
2022/09/16 08:20:54;;;;;;;31.90;11.57;;;;;;;14.15;84.77;95635.91;5073249;28;20048;-75
2022/09/16 08:23:21;;;;;;;35.85;10.80;;;;;;;14.09;85.03;95638.13;5072303;28;20048;-75
2022/09/16 08:25:47;;;;;;;32.78;11.35;;;;;;;14.01;84.81;95630.88;5073295;28;20036;-75
2022/09/16 08:28:16;;;;;;;26.88;10.48;;;;;;;14.20;85.13;95634.78;5072896;28;20055;-75
2022/09/16 08:30:43;;;;;;;33.95;10.88;;;;;;;14.37;84.97;95637.13;5073275;28;20055;-76
2022/09/16 08:33:09;;;;;;;35.20;11.38;;;;;;;14.39;84.26;95639.50;5072896;28;20063;-76
2022/09/16 08:35:37;;;;;;;33.35;11.43;;;;;;;14.36;83.60;95647.31;5073188;28;20045;-75
2022/09/16 08:38:04;;;;;;;28.90;11.00;;;;;;;14.41;84.00;95642.66;5072809;28;20048;-75
2022/09/16 08:40:34;;;;;;;29.58;10.32;;;;;;;14.44;83.77;95639.22;5073381;28;20175;-75
2022/09/16 08:43:09;;;;;;;31.33;11.48;;;;;;;14.40;85.78;95641.09;5073271;28;20115;-75
2022/09/16 08:45:44;;;;;;;26.75;11.25;;;;;;;14.53;86.14;95645.31;5072878;28;20043;-75
2022/09/16 08:48:27;;;;;;;35.13;11.73;;;;;;;14.46;85.45;95645.94;5072627;28;20045;-76
2022/09/16 08:50:55;;;;;;;35.20;10.98;;;;;;;14.61;84.69;95645.06;5072938;28;20101;-75
2022/09/16 08:53:32;;;;;;;29.17;11.38;;;;;;;14.56;84.12;95637.19;5072614;28;20052;-75
2022/09/16 08:56:03;;;;;;;26.40;11.23;;;;;;;14.54;83.87;95642.22;5072756;28;20048;-74
2022/09/16 08:58:35;;;;;;;24.27;10.57;;;;;;;14.61;83.90;95642.34;5071799;28;20045;-75
2022/09/16 09:01:15;;;;;;;33.65;11.68;;;;;;;14.66;84.27;95646.75;5072581;28;20048;-74
2022/09/16 09:03:43;;;;;;;28.02;10.95;;;;;;;14.36;83.60;95636.34;5072883;28;20119;-76
2022/09/16 09:06:27;;;;;;;34.67;11.18;;;;;;;14.38;83.52;95638.72;5072288;28;20464;-75
2022/09/16 09:09:03;;;;;;;24.30;9.43;;;;;;;14.52;83.91;95641.00;5072855;28;20048;-74
2022/09/16 09:11:35;;;;;;;27.17;10.60;;;;;;;14.20;83.38;95635.63;5072423;28;20041;-74
2022/09/16 09:14:26;;;;;;;29.08;10.57;;;;;;;14.18;84.00;95629.69;5072218;28;20045;-74
2022/09/16 09:16:59;;;;;;;29.58;10.68;;;;;;;14.26;84.25;95623.22;5072706;28;20076;-75
2022/09/16 09:19:36;;;;;;;34.03;10.73;;;;;;;14.33;84.36;95623.34;5071959;28;20044;-74
2022/09/16 09:22:13;;;;;;;33.13;11.23;;;;;;;14.36;85.42;95613.66;5072143;28;20052;-76
2022/09/16 09:24:55;;;;;;;30.35;11.80;;;;;;;14.36;85.95;95616.38;5072427;28;20113;-75
2022/09/16 09:27:27;;;;;;;31.27;10.82;;;;;;;14.46;85.92;95620.47;5071909;28;20052;-75
2022/09/16 09:30:13;;;;;;;31.00;11.00;;;;;;;14.46;84.93;95618.53;5072473;28;20105;-75
2022/09/16 09:32:57;;;;;;;31.55;10.82;;;;;;;14.49;83.82;95617.03;5072207;28;20502;-76
2022/09/16 09:35:38;;;;;;;29.52;12.00;;;;;;;14.44;84.47;95618.09;5071860;28;20055;-75
2022/09/16 09:38:27;;;;;;;26.85;11.57;;;;;;;14.43;85.41;95613.00;5071619;28;20149;-74
2022/09/16 09:40:57;;;;;;;26.65;10.90;;;;;;;14.55;85.68;95615.59;5063177;28;20048;-75
2022/09/16 09:43:28;;;;;;;27.55;10.38;;;;;;;14.55;85.76;95612.84;5071605;28;20041;-76
2022/09/16 09:46:02;;;;;;;29.23;12.85;;;;;;;14.47;86.47;95617.41;5071984;28;20044;-75
2022/09/16 09:48:36;;;;;;;25.30;11.45;;;;;;;14.30;87.89;95613.13;5071791;28;20037;-75
2022/09/16 09:51:11;;;;;;;31.70;13.68;;;;;;;14.13;89.86;95623.69;5071469;28;20404;-75
2022/09/16 09:53:45;;;;;;;28.23;14.35;;;;;;;13.71;93.79;95611.44;5071957;28;20055;-75
2022/09/16 09:56:18;;;;;;;41.55;16.20;;;;;;;13.60;94.49;95615.88;5071248;28;20040;-76
2022/09/16 09:58:55;;;;;;;27.20;14.20;;;;;;;13.49;95.71;95620.31;5071727;28;20044;-75
2022/09/16 10:01:21;;;;;;;33.67;15.32;;;;;;;13.25;97.03;95630.25;5071136;28;20048;-76
2022/09/16 10:03:51;;;;;;;41.70;16.98;;;;;;;13.09;98.89;95629.44;5071656;28;20123;-74
2022/09/16 10:06:22;;;;;;;37.15;15.18;;;;;;;12.95;99.79;95629.09;5070937;28;20044;-75
2022/09/16 10:08:51;;;;;;;35.13;14.90;;;;;;;13.05;99.54;95625.84;5071783;28;20067;-74
2022/09/16 10:11:19;;;;;;;38.33;16.42;;;;;;;13.05;100.00;95623.09;5070280;28;20052;-74
2022/09/16 10:13:51;;;;;;;31.52;13.85;;;;;;;12.99;100.00;95625.28;5071737;28;20056;-74
2022/09/16 10:16:20;;;;;;;27.63;12.90;;;;;;;13.12;100.00;95623.28;5071024;28;20048;-75
2022/09/16 10:18:56;;;;;;;33.47;13.45;;;;;;;13.10;100.00;95622.03;5071435;28;20041;-74
2022/09/16 10:21:23;;;;;;;32.58;14.48;;;;;;;13.11;100.00;95621.69;5070836;28;20047;-74
2022/09/16 10:23:54;;;;;;;33.90;13.15;;;;;;;13.13;99.87;95619.38;5071381;28;20044;-75
2022/09/16 10:26:22;;;;;;;27.92;12.52;;;;;;;13.04;99.21;95622.28;5070635;28;20403;-74
2022/09/16 10:28:59;;;;;;;29.85;12.20;;;;;;;13.16;99.14;95617.91;5071302;28;20495;-75
2022/09/16 10:31:29;;;;;;;29.17;13.10;;;;;;;13.15;99.63;95619.81;5070702;28;20040;-75
2022/09/16 10:33:59;;;;;;;31.98;15.52;;;;;;;13.25;99.94;95610.34;5071190;28;20048;-74
2022/09/16 10:36:32;;;;;;;39.95;14.80;;;;;;;13.14;100.00;95614.72;5070563;28;20048;-74
2022/09/16 10:39:01;;;;;;;29.25;12.35;;;;;;;12.90;98.64;95612.94;5071018;28;20427;-76
2022/09/16 10:41:31;;;;;;;24.40;8.75;;;;;;;12.85;98.14;95613.19;5070895;28;20407;-76
2022/09/16 10:44:00;;;;;;;24.30;7.72;;;;;;;12.70;97.14;95601.88;5070888;28;20064;-76
2022/09/16 10:46:28;;;;;;;22.10;7.03;;;;;;;12.74;96.93;95607.47;5070844;28;20048;-76
2022/09/16 10:49:00;;;;;;;25.00;7.55;;;;;;;12.72;95.78;95605.06;5070774;28;20059;-76
2022/09/16 10:51:28;;;;;;;19.63;6.82;;;;;;;12.74;95.14;95608.25;5070530;28;20041;-76
2022/09/16 10:53:57;;;;;;;22.15;6.47;;;;;;;12.70;93.98;95604.63;5070868;28;20063;-75
2022/09/16 10:56:28;;;;;;;26.17;7.97;;;;;;;12.73;95.15;95598.44;5070088;28;20050;-75
2022/09/16 10:59:05;;;;;;;18.63;6.72;;;;;;;12.85;95.61;95607.75;5070762;28;20055;-75
2022/09/16 11:01:42;;;;;;;25.20;7.32;;;;;;;12.88;95.97;95602.34;5070606;28;20107;-75
2022/09/16 11:04:33;;;;;;;21.67;7.75;;;;;;;12.80;94.75;95601.38;5070219;28;20044;-76
2022/09/16 11:07:10;;;;;;;23.80;8.30;;;;;;;12.83;94.41;95599.06;5070510;28;20044;-76
2022/09/16 11:09:45;;;;;;;24.67;8.35;;;;;;;12.89;95.66;95594.94;5070600;28;20044;-75
2022/09/16 11:12:32;;;;;;;33.78;9.77;;;;;;;12.98;95.89;95585.44;5070159;28;20392;-75
2022/09/16 11:15:05;;;;;;;21.38;9.52;;;;;;;13.09;97.05;95580.22;5070624;28;20051;-75
2022/09/16 11:17:52;;;;;;;35.85;10.18;;;;;;;13.11;96.37;95582.63;5070282;28;20040;-76
2022/09/16 11:20:44;;;;;;;29.73;9.77;;;;;;;13.07;95.28;95593.47;5069756;28;20048;-75
2022/09/16 11:23:26;;;;;;;35.25;11.15;;;;;;;12.96;95.22;95593.19;5067426;28;20048;-75
2022/09/16 11:26:00;;;;;;;29.73;9.63;;;;;;;12.77;95.23;95606.75;5070651;28;20049;-75
2022/09/16 11:29:02;;;;;;;23.23;7.07;;;;;;;12.76;94.30;95608.69;5070158;28;20047;-75
2022/09/16 11:31:39;;;;;;;19.48;5.57;;;;;;;12.68;91.28;95608.84;5070120;28;20449;-75
2022/09/16 11:34:15;;;;;;;21.90;5.28;;;;;;;12.57;92.33;95614.00;5069916;28;20045;-76
2022/09/16 11:36:53;;;;;;;24.80;5.65;;;;;;;12.44;92.57;95615.22;5070270;28;20041;-74
2022/09/16 11:39:38;;;;;;;21.70;5.57;;;;;;;12.25;93.10;95608.44;5069934;28;20458;-74